Time;durP1;ratioP1;P1;durP2;ratioP2;P2;SDS_P1;SDS_P2;PMS_P1;PMS_P2;Temp;Humidity;BMP_temperature;BMP_pressure;BME280_temperature;BME280_humidity;BME280_pressure;Samples;Min_cycle;Max_cycle;Signal;HPM_P1;HPM_P2
2023/01/18 00:00:46;;;;;;;;;;;;;;;2.19;56.04;98061.22;4962352;28;7230;-75
2023/01/18 00:03:12;;;;;;;;;;;;;;;2.16;56.21;98057.69;4977814;28;7110;-74
2023/01/18 00:05:40;;;;;;;;;;;;;;;2.13;56.12;98060.94;4991435;28;6963;-74
2023/01/18 00:08:15;;;;;;;;;;;;;;;2.13;56.08;98058.41;4995143;28;7215;-74
2023/01/18 00:10:42;;;;;;;;;;;;;;;2.11;56.15;98054.94;4967939;28;6862;-74
2023/01/18 00:13:08;;;;;;;;;;;;;;;2.11;55.89;98059.13;4968471;28;8440;-75
2023/01/18 00:15:36;;;;;;;;;;;;;;;2.08;55.82;98060.72;4972573;28;7254;-75
2023/01/18 00:18:02;;;;;;;;;;;;;;;2.07;56.00;98070.75;4994382;28;6975;-74
2023/01/18 00:20:30;;;;;;;;;;;;;;;2.08;56.28;98062.41;4983212;28;6784;-74
2023/01/18 00:22:59;;;;;;;;;;;;;;;2.06;55.79;98069.91;4993434;28;6978;-74
2023/01/18 00:25:25;;;;;;;;;;;;;;;2.05;55.71;98069.84;4965669;28;7291;-75
2023/01/18 00:27:53;;;;;;;;;;;;;;;2.03;56.02;98068.91;4967449;28;6991;-75
2023/01/18 00:30:24;;;;;;;;;;;;;;;2.02;56.10;98074.75;4979791;28;8414;-75
2023/01/18 00:32:56;;;;;;;;;;;;;;;1.99;55.89;98072.97;4979775;28;6856;-74
2023/01/18 00:35:23;;;;;;;;;;;;;;;1.98;56.21;98078.81;4981187;28;7117;-75
2023/01/18 00:37:51;;;;;;;;;;;;;;;1.98;56.46;98083.88;4994599;28;8218;-75
2023/01/18 00:40:19;;;;;;;;;;;;;;;1.98;56.16;98078.81;4994877;28;6808;-74
2023/01/18 00:45:28;;;;;;;;;;;;;;;2.01;56.29;98081.47;4975317;28;6796;-75
2023/01/18 00:47:54;;;;;;;;;;;;;;;2.04;56.47;98075.69;4998445;28;7244;-75
2023/01/18 00:50:21;;;;;;;;;;;;;;;2.06;56.76;98087.59;4980233;28;7216;-74
2023/01/18 00:52:47;;;;;;;;;;;;;;;2.10;56.73;98085.19;4980709;28;6866;-74
2023/01/18 00:55:15;;;;;;;;;;;;;;;2.11;57.12;98082.75;4980863;28;7001;-74
2023/01/18 00:57:42;;;;;;;;;;;;;;;2.15;57.21;98086.28;4970019;28;7011;-74
2023/01/18 01:00:14;;;;;;;;;;;;;;;2.18;56.49;98094.00;4963375;28;7006;-74
2023/01/18 01:02:40;;;;;;;;;;;;;;;2.17;56.88;98088.09;4974444;28;11298;-74
2023/01/18 01:08:15;;;;;;;;;;;;;;;2.13;56.68;98090.41;4981951;28;6800;-74
2023/01/18 01:10:47;;;;;;;;;;;;;;;2.11;56.24;98087.81;4992500;28;6804;-74
2023/01/18 01:27:02;;;;;;;;;;;;;;;2.05;56.89;98101.03;4992280;28;6796;-74
2023/01/18 01:29:28;;;;;;;;;;;;;;;2.06;56.38;98104.41;4976020;28;6986;-74
2023/01/18 01:31:54;;;;;;;;;;;;;;;2.07;56.10;98104.50;4992431;28;7107;-74
2023/01/18 01:34:19;;;;;;;;;;;;;;;2.09;56.08;98114.69;4981799;28;7352;-74
2023/01/18 01:36:45;;;;;;;;;;;;;;;2.10;56.26;98113.00;4974737;28;6914;-74
2023/01/18 01:39:11;;;;;;;;;;;;;;;2.10;56.39;98113.88;4947484;28;8370;-74
2023/01/18 01:41:37;;;;;;;;;;;;;;;2.10;56.15;98116.41;4978801;28;6955;-74
2023/01/18 01:44:28;;;;;;;;;;;;;;;2.12;56.10;98113.94;4961737;28;6776;-74
2023/01/18 01:47:45;;;;;;;;;;;;;;;2.13;56.52;98119.06;4971298;28;7224;-74
2023/01/18 01:50:34;;;;;;;;;;;;;;;2.15;56.61;98129.25;4975209;28;7315;-74
2023/01/18 01:53:01;;;;;;;;;;;;;;;2.16;56.91;98125.94;4964861;28;7088;-74
2023/01/18 01:55:39;;;;;;;;;;;;;;;2.18;55.89;98121.78;4947686;28;7328;-74
2023/01/18 01:58:21;;;;;;;;;;;;;;;2.18;56.29;98129.38;4982027;28;6804;-74
2023/01/18 02:00:47;;;;;;;;;;;;;;;2.16;56.09;98120.88;4954535;28;7076;-74
2023/01/18 02:03:19;;;;;;;;;;;;;;;2.16;55.91;98126.78;4955450;28;8392;-74
2023/01/18 02:05:51;;;;;;;;;;;;;;;2.13;56.04;98125.78;4974138;28;7080;-74
2023/01/18 02:08:21;;;;;;;;;;;;;;;2.12;56.42;98129.09;4968555;28;7212;-74
2023/01/18 02:10:51;;;;;;;;;;;;;;;2.11;56.68;98132.41;4996605;28;7110;-74
2023/01/18 02:13:21;;;;;;;;;;;;;;;2.10;56.82;98133.22;4983720;28;7095;-74
2023/01/18 02:16:20;;;;;;;;;;;;;;;2.09;55.91;98137.44;4976237;28;6972;-74
2023/01/18 02:19:15;;;;;;;;;;;;;;;2.08;56.87;98133.16;4962956;28;9552;-74
2023/01/18 02:22:00;;;;;;;;;;;;;;;2.07;55.80;98133.94;4968545;28;8238;-74
2023/01/18 02:24:57;;;;;;;;;;;;;;;2.06;55.93;98140.66;4975887;28;7187;-74
2023/01/18 02:27:48;;;;;;;;;;;;;;;2.05;55.96;98146.53;4954126;28;6808;-74
2023/01/18 02:30:25;;;;;;;;;;;;;;;2.04;56.02;98144.78;4978465;28;7011;-74
2023/01/18 02:33:03;;;;;;;;;;;;;;;2.04;56.56;98146.44;4983976;28;8879;-74
2023/01/18 02:35:50;;;;;;;;;;;;;;;2.06;56.86;98135.63;4993732;28;7241;-74
2023/01/18 02:38:27;;;;;;;;;;;;;;;2.09;56.95;98137.44;4967785;28;6804;-74
2023/01/18 02:41:20;;;;;;;;;;;;;;;2.13;56.80;98138.44;4967753;28;7003;-74
2023/01/18 02:46:39;;;;;;;;;;;;;;;2.18;56.68;98147.06;4963219;28;6808;-74
2023/01/18 02:49:22;;;;;;;;;;;;;;;2.19;56.78;98147.16;4965981;28;6919;-74
2023/01/18 02:51:47;;;;;;;;;;;;;;;2.21;56.45;98154.78;4963968;28;6796;-74
2023/01/18 02:54:23;;;;;;;;;;;;;;;2.24;57.42;98154.06;4961915;28;7196;-74
2023/01/18 02:56:53;;;;;;;;;;;;;;;2.26;56.85;98158.41;4977429;28;6807;-74
2023/01/18 02:59:38;;;;;;;;;;;;;;;2.29;56.61;98163.59;4964681;28;7274;-74
2023/01/18 03:02:15;;;;;;;;;;;;;;;2.32;56.54;98167.91;4958787;28;6963;-74
2023/01/18 03:04:53;;;;;;;;;;;;;;;2.33;56.51;98164.59;4977218;28;6994;-74
2023/01/18 03:07:40;;;;;;;;;;;;;;;2.38;57.40;98168.19;4983770;28;6997;-74
2023/01/18 03:10:10;;;;;;;;;;;;;;;2.38;56.70;98165.69;4980912;28;6989;-74
2023/01/18 03:12:54;;;;;;;;;;;;;;;2.38;56.77;98165.69;4982602;28;7094;-74
2023/01/18 03:15:40;;;;;;;;;;;;;;;2.38;56.90;98164.78;4966396;28;7230;-73
2023/01/18 03:18:58;;;;;;;;;;;;;;;2.40;56.05;98175.84;4974303;28;7133;-74
2023/01/18 03:21:34;;;;;;;;;;;;;;;2.38;56.67;98172.38;4972544;28;6956;-74
2023/01/18 03:24:06;;;;;;;;;;;;;;;2.36;57.01;98174.81;4979382;28;6808;-74
2023/01/18 03:26:40;;;;;;;;;;;;;;;2.34;55.90;98177.31;4961535;28;8490;-74
2023/01/18 03:35:09;;;;;;;;;;;;;;;2.24;56.35;98190.34;4970770;28;7087;-74
2023/01/18 03:37:44;;;;;;;;;;;;;;;2.19;56.24;98197.69;4960140;28;7369;-73
2023/01/18 03:40:17;;;;;;;;;;;;;;;2.17;56.02;98190.84;4961583;28;7179;-73
2023/01/18 03:43:13;;;;;;;;;;;;;;;2.13;56.46;98194.03;4994434;28;7200;-74
2023/01/18 03:45:45;;;;;;;;;;;;;;;2.11;56.50;98198.13;4964824;28;7238;-73
2023/01/18 03:48:12;;;;;;;;;;;;;;;2.09;56.88;98195.56;4991193;28;6812;-74
2023/01/18 03:51:07;;;;;;;;;;;;;;;2.09;56.13;98200.59;4984133;28;7369;-74
2023/01/18 03:54:14;;;;;;;;;;;;;;;2.06;56.83;98198.78;4990180;28;7518;-74
2023/01/18 03:56:58;;;;;;;;;;;;;;;2.04;56.09;98197.88;4973651;28;6820;-74
2023/01/18 03:59:33;;;;;;;;;;;;;;;2.03;56.79;98200.31;4963963;28;6820;-74
2023/01/18 04:01:59;;;;;;;;;;;;;;;2.01;56.48;98207.81;4975088;28;6808;-74
2023/01/18 04:04:25;;;;;;;;;;;;;;;2.01;56.59;98201.91;4961756;28;7222;-74
2023/01/18 04:06:50;;;;;;;;;;;;;;;2.02;56.65;98211.22;4990212;28;6971;-74
2023/01/18 04:09:16;;;;;;;;;;;;;;;2.01;56.41;98210.34;4979350;28;7797;-74
2023/01/18 04:11:41;;;;;;;;;;;;;;;2.01;56.39;98212.88;4963842;28;6857;-74
2023/01/18 04:14:07;;;;;;;;;;;;;;;2.03;56.61;98211.31;4977709;28;6860;-74
2023/01/18 04:16:33;;;;;;;;;;;;;;;2.03;56.69;98213.81;4992287;28;6771;-74
2023/01/18 04:18:58;;;;;;;;;;;;;;;2.05;56.26;98212.22;4977792;28;6792;-74
2023/01/18 04:21:24;;;;;;;;;;;;;;;2.08;56.55;98212.34;4976457;28;6956;-74
2023/01/18 04:23:49;;;;;;;;;;;;;;;2.11;56.67;98219.22;4963000;28;6782;-74
2023/01/18 04:26:15;;;;;;;;;;;;;;;2.13;56.97;98222.69;4991188;28;7136;-74
2023/01/18 04:28:41;;;;;;;;;;;;;;;2.15;56.87;98225.28;4962526;28;6771;-74
2023/01/18 04:31:07;;;;;;;;;;;;;;;2.17;56.93;98227.09;4959181;28;7095;-74
2023/01/18 04:33:33;;;;;;;;;;;;;;;2.19;56.94;98229.69;4972280;28;6988;-74
2023/01/18 04:35:59;;;;;;;;;;;;;;;2.18;56.19;98238.94;4980481;28;7367;-74
2023/01/18 04:38:25;;;;;;;;;;;;;;;2.20;56.15;98231.41;4975360;28;6991;-74
2023/01/18 04:40:50;;;;;;;;;;;;;;;2.18;56.63;98230.47;4989090;28;6938;-73
2023/01/18 04:43:16;;;;;;;;;;;;;;;2.20;56.15;98224.72;4986841;28;6983;-73
2023/01/18 04:45:45;;;;;;;;;;;;;;;2.21;57.00;98230.63;4974482;28;6792;-74
2023/01/18 04:48:10;;;;;;;;;;;;;;;2.23;56.98;98239.16;4981911;28;8026;-73
2023/01/18 04:50:37;;;;;;;;;;;;;;;2.25;56.17;98231.63;4973524;28;6772;-74
2023/01/18 04:53:03;;;;;;;;;;;;;;;2.25;56.66;98241.75;4959724;28;6792;-73
2023/01/18 04:55:29;;;;;;;;;;;;;;;2.26;57.01;98246.88;4990122;28;6955;-74
2023/01/18 04:57:55;;;;;;;;;;;;;;;2.27;56.37;98248.59;4987494;28;6981;-74
2023/01/18 05:00:22;;;;;;;;;;;;;;;2.28;56.58;98257.06;4987102;28;7295;-74
2023/01/18 05:02:48;;;;;;;;;;;;;;;2.28;56.33;98255.38;4988591;28;6808;-73
2023/01/18 05:05:14;;;;;;;;;;;;;;;2.28;56.51;98257.91;4975901;28;6875;-74
2023/01/18 05:07:40;;;;;;;;;;;;;;;2.27;56.99;98263.78;4962426;28;6925;-74
2023/01/18 05:10:06;;;;;;;;;;;;;;;2.27;56.63;98268.81;4989273;28;6811;-74
2023/01/18 05:12:31;;;;;;;;;;;;;;;2.25;56.61;98272.94;4972844;28;6852;-74
2023/01/18 05:14:57;;;;;;;;;;;;;;;2.24;56.88;98277.94;4979645;28;7577;-74
2023/01/18 05:17:26;;;;;;;;;;;;;;;2.21;56.61;98273.59;4963065;28;6939;-74
2023/01/18 05:19:53;;;;;;;;;;;;;;;2.18;56.72;98275.97;4977305;28;7128;-74
2023/01/18 05:22:21;;;;;;;;;;;;;;;2.18;56.46;98288.63;4963742;28;6907;-74
2023/01/18 05:24:47;;;;;;;;;;;;;;;2.17;56.37;98284.34;4977515;28;7201;-74
2023/01/18 05:27:13;;;;;;;;;;;;;;;2.17;56.70;98291.94;4975667;28;7050;-74
2023/01/18 05:29:39;;;;;;;;;;;;;;;2.16;56.15;98286.00;4991494;28;6984;-73
2023/01/18 05:32:05;;;;;;;;;;;;;;;2.16;56.27;98287.69;4988583;28;6934;-74
2023/01/18 05:34:31;;;;;;;;;;;;;;;2.16;56.63;98286.00;4965507;28;6855;-74
2023/01/18 05:36:57;;;;;;;;;;;;;;;2.16;55.89;98295.25;4989962;28;7903;-74
2023/01/18 05:39:23;;;;;;;;;;;;;;;2.15;56.54;98301.13;4966033;28;7491;-74
2023/01/18 05:41:49;;;;;;;;;;;;;;;2.12;56.27;98311.06;4994135;28;6768;-74
2023/01/18 05:44:15;;;;;;;;;;;;;;;2.11;56.39;98304.28;4983577;28;6958;-74
2023/01/18 05:46:40;;;;;;;;;;;;;;;2.10;56.57;98313.53;4967813;28;7003;-74
2023/01/18 05:49:06;;;;;;;;;;;;;;;2.11;56.26;98319.44;4979289;28;6934;-74
2023/01/18 05:51:31;;;;;;;;;;;;;;;2.11;56.47;98322.84;4974700;28;7162;-74
2023/01/18 05:53:57;;;;;;;;;;;;;;;2.14;56.24;98324.66;4984869;28;6977;-74
2023/01/18 05:56:23;;;;;;;;;;;;;;;2.16;56.50;98328.13;4996598;28;7416;-74
2023/01/18 05:58:48;;;;;;;;;;;;;;;2.18;56.64;98331.59;4967457;28;6808;-74
2023/01/18 06:01:14;;;;;;;;;;;;;;;2.21;57.11;98331.72;4974207;28;6780;-74
2023/01/18 06:03:40;;;;;;;;;;;;;;;2.25;56.54;98338.69;4992913;28;6847;-74
2023/01/18 06:06:05;;;;;;;;;;;;;;;2.27;56.57;98334.56;4978225;28;7027;-74
2023/01/18 06:08:31;;;;;;;;;;;;;;;2.31;57.01;98341.47;4977811;28;6862;-74
2023/01/18 06:10:58;;;;;;;;;;;;;;;2.33;56.51;98342.44;4968606;28;6963;-73
2023/01/18 06:13:28;;;;;;;;;;;;;;;2.36;56.49;98351.81;4984554;28;6784;-74
2023/01/18 06:15:55;;;;;;;;;;;;;;;2.39;56.73;98346.91;4997619;28;7005;-74
2023/01/18 06:18:23;;;;;;;;;;;;;;;2.43;56.78;98356.38;4982243;28;8416;-74
2023/01/18 06:20:48;;;;;;;;;;;;;;;2.45;56.34;98353.94;4966693;28;7192;-74
2023/01/18 06:23:14;;;;;;;;;;;;;;;2.46;56.23;98350.59;4995022;28;6772;-74
2023/01/18 06:25:40;;;;;;;;;;;;;;;2.48;56.54;98356.59;4962655;28;6795;-74
2023/01/18 06:28:05;;;;;;;;;;;;;;;2.47;56.12;98360.81;4984855;28;7091;-74
2023/01/18 06:30:33;;;;;;;;;;;;;;;2.48;56.77;98360.00;4968173;28;7027;-73
2023/01/18 06:33:03;;;;;;;;;;;;;;;2.50;56.87;98362.59;4967532;28;6792;-74
2023/01/18 06:35:29;;;;;;;;;;;;;;;2.53;56.39;98370.34;4974036;28;6908;-74
2023/01/18 06:37:55;;;;;;;;;;;;;;;2.54;57.03;98374.59;4965126;28;6784;-73
2023/01/18 06:40:21;;;;;;;;;;;;;;;2.56;56.09;98375.53;4964899;28;7050;-74
2023/01/18 06:42:47;;;;;;;;;;;;;;;2.59;56.61;98375.66;4991692;28;6840;-74
2023/01/18 06:45:15;;;;;;;;;;;;;;;2.61;56.27;98369.03;4965036;28;6804;-74
2023/01/18 06:47:42;;;;;;;;;;;;;;;2.64;56.63;98379.28;4976882;28;6995;-74
2023/01/18 06:50:09;;;;;;;;;;;;;;;2.68;56.95;98390.44;4975463;28;6796;-73
2023/01/18 06:52:35;;;;;;;;;;;;;;;2.71;56.66;98384.66;4978392;28;7009;-74
2023/01/18 06:55:01;;;;;;;;;;;;;;;2.72;56.47;98392.28;4978926;28;7268;-74
2023/01/18 06:57:26;;;;;;;;;;;;;;;2.76;55.81;98398.38;4970856;28;6851;-74
2023/01/18 06:59:52;;;;;;;;;;;;;;;2.77;56.21;98395.03;4965109;28;7070;-73
2023/01/18 07:02:19;;;;;;;;;;;;;;;2.80;56.37;98396.84;4971628;28;6930;-74
2023/01/18 07:04:45;;;;;;;;;;;;;;;2.82;56.57;98401.19;4980394;28;6855;-74
2023/01/18 07:07:12;;;;;;;;;;;;;;;2.85;56.60;98408.91;4976444;28;6764;-74
2023/01/18 07:09:37;;;;;;;;;;;;;;;2.87;55.37;98411.53;4965992;28;7192;-73
2023/01/18 07:12:03;;;;;;;;;;;;;;;2.88;55.34;98411.59;4979083;28;6970;-74
2023/01/18 07:14:29;;;;;;;;;;;;;;;2.89;55.52;98420.91;4992611;28;7920;-74
2023/01/18 07:16:54;;;;;;;;;;;;;;;2.88;56.42;98416.63;4994594;28;6796;-74
2023/01/18 07:19:20;;;;;;;;;;;;;;;2.88;56.24;98419.16;4980591;28;6978;-74
2023/01/18 07:21:46;;;;;;;;;;;;;;;2.87;56.34;98424.19;4959581;28;7742;-74
2023/01/18 07:24:11;;;;;;;;;;;;;;;2.87;55.91;98432.63;4968070;28;6997;-73
2023/01/18 07:26:37;;;;;;;;;;;;;;;2.87;55.47;98441.91;4991543;28;6783;-74
2023/01/18 07:29:03;;;;;;;;;;;;;;;2.86;56.25;98441.00;4976215;28;7844;-74
2023/01/18 07:31:29;;;;;;;;;;;;;;;2.84;55.17;98447.66;4975187;28;7059;-74
2023/01/18 07:33:55;;;;;;;;;;;;;;;2.84;55.37;98446.78;4977148;28;7259;-74
2023/01/18 07:36:21;;;;;;;;;;;;;;;2.83;55.87;98452.66;4978784;28;6776;-74
2023/01/18 07:38:47;;;;;;;;;;;;;;;2.81;56.08;98455.13;4976045;28;6862;-73
2023/01/18 07:41:15;;;;;;;;;;;;;;;2.80;55.72;98458.47;4968657;28;6792;-73
2023/01/18 07:43:43;;;;;;;;;;;;;;;2.80;55.50;98457.56;4971837;28;6961;-74
2023/01/18 07:46:14;;;;;;;;;;;;;;;2.80;55.38;98466.03;4982594;28;6999;-74
2023/01/18 07:48:40;;;;;;;;;;;;;;;2.77;55.50;98460.81;4960719;28;7301;-73
2023/01/18 07:51:08;;;;;;;;;;;;;;;2.77;55.83;98471.81;4977965;28;6933;-74
2023/01/18 07:53:36;;;;;;;;;;;;;;;2.77;55.15;98476.00;4974781;28;7204;-74
2023/01/18 07:56:10;;;;;;;;;;;;;;;2.78;56.07;98470.13;4977026;28;6997;-74
2023/01/18 07:58:36;;;;;;;;;;;;;;;2.78;55.62;98481.16;4986000;28;6808;-74
2023/01/18 08:01:09;;;;;;;;;;;;;;;2.80;55.52;98478.69;4992478;28;7054;-74
2023/01/18 08:03:35;;;;;;;;;;;;;;;2.81;55.34;98477.91;4982557;28;7081;-74
2023/01/18 08:06:04;;;;;;;;;;;;;;;2.83;56.41;98483.91;4966741;28;7270;-74
2023/01/18 08:08:30;;;;;;;;;;;;;;;2.85;55.58;98489.88;4993194;28;6993;-74
2023/01/18 08:10:59;;;;;;;;;;;;;;;2.88;56.32;98489.19;4975883;28;6808;-74
2023/01/18 08:13:26;;;;;;;;;;;;;;;2.92;56.01;98499.53;4975453;28;6970;-73
2023/01/18 08:15:54;;;;;;;;;;;;;;;2.97;55.47;98498.84;4958641;28;6999;-73
2023/01/18 08:18:20;;;;;;;;;;;;;;;3.01;56.46;98503.28;4994179;28;6811;-73
2023/01/18 08:20:47;;;;;;;;;;;;;;;3.01;55.21;98496.53;4960690;28;7709;-73
2023/01/18 08:23:15;;;;;;;;;;;;;;;3.05;55.80;98493.38;4976073;28;6799;-73
2023/01/18 08:25:42;;;;;;;;;;;;;;;3.09;56.28;98504.53;4963132;28;6874;-74
2023/01/18 08:28:10;;;;;;;;;;;;;;;3.12;56.10;98507.19;4954788;28;7047;-74
2023/01/18 08:30:40;;;;;;;;;;;;;;;3.14;55.64;98513.19;4980050;28;6967;-74
2023/01/18 08:33:07;;;;;;;;;;;;;;;3.19;56.00;98518.47;4964370;28;8333;-73
2023/01/18 08:35:43;;;;;;;;;;;;;;;3.23;55.92;98524.56;4988624;28;7374;-74
2023/01/18 08:38:11;;;;;;;;;;;;;;;3.27;55.97;98527.31;4964845;28;7041;-74
2023/01/18 08:40:36;;;;;;;;;;;;;;;3.31;56.55;98529.16;4964931;28;6788;-74
2023/01/18 08:43:04;;;;;;;;;;;;;;;3.38;55.18;98539.59;4982223;28;6772;-74
2023/01/18 08:45:31;;;;;;;;;;;;;;;3.43;56.10;98543.22;4963158;28;7010;-73
2023/01/18 08:48:01;;;;;;;;;;;;;;;3.48;55.50;98544.28;4983911;28;7051;-74
2023/01/18 08:50:28;;;;;;;;;;;;;;;3.55;56.40;98547.97;4987592;28;6983;-74
2023/01/18 08:52:55;;;;;;;;;;;;;;;3.60;56.00;98544.00;4964378;28;6800;-74
2023/01/18 08:55:21;;;;;;;;;;;;;;;3.67;55.45;98545.13;4965278;28;6981;-73
2023/01/18 08:57:48;;;;;;;;;;;;;;;3.73;55.75;98553.88;4959681;28;7250;-73
2023/01/18 09:00:16;;;;;;;;;;;;;;;3.80;55.52;98561.78;4978531;28;6939;-74
2023/01/18 09:02:42;;;;;;;;;;;;;;;3.85;55.79;98565.38;4962038;28;6825;-73
2023/01/18 09:05:08;;;;;;;;;;;;;;;3.90;55.31;98563.91;4959870;28;6780;-73
2023/01/18 09:07:33;;;;;;;;;;;;;;;3.95;55.72;98567.50;4958816;28;6895;-74
2023/01/18 09:09:59;;;;;;;;;;;;;;;3.99;54.72;98573.59;4962798;28;7031;-74
2023/01/18 09:12:25;;;;;;;;;;;;;;;4.03;55.57;98576.34;4976004;28;6776;-73
2023/01/18 09:14:50;;;;;;;;;;;;;;;4.06;54.98;98564.63;4984101;28;7237;-74
2023/01/18 09:17:20;;;;;;;;;;;;;;;4.10;54.57;98569.00;4988522;28;7237;-73
2023/01/18 09:19:45;;;;;;;;;;;;;;;4.15;54.67;98572.59;4959198;28;7197;-73
2023/01/18 09:22:11;;;;;;;;;;;;;;;4.17;54.83;98576.94;4995857;28;6970;-73
2023/01/18 09:24:37;;;;;;;;;;;;;;;4.21;54.55;98574.56;4980107;28;6956;-74
2023/01/18 09:27:03;;;;;;;;;;;;;;;4.28;54.57;98584.16;4989222;28;6956;-74
2023/01/18 09:29:30;;;;;;;;;;;;;;;4.33;54.85;98590.31;4984058;28;6784;-74
2023/01/18 09:31:56;;;;;;;;;;;;;;;4.37;54.17;98588.78;4960945;28;6868;-73
2023/01/18 09:34:22;;;;;;;;;;;;;;;4.42;54.44;98590.72;4990442;28;7674;-74
2023/01/18 09:36:51;;;;;;;;;;;;;;;4.48;54.46;98597.72;4988039;28;6936;-73
2023/01/18 09:39:19;;;;;;;;;;;;;;;4.54;54.42;98603.06;4992556;28;6864;-73
2023/01/18 09:41:59;;;;;;;;;;;;;;;4.61;54.40;98605.84;4974695;28;6935;-73
2023/01/18 09:44:37;;;;;;;;;;;;;;;4.66;54.42;98609.47;4976227;28;6808;-73
2023/01/18 09:47:16;;;;;;;;;;;;;;;4.73;54.87;98621.59;4965850;28;6808;-73
2023/01/18 09:49:56;;;;;;;;;;;;;;;4.80;54.16;98621.06;4974720;28;7084;-73
2023/01/18 09:52:47;;;;;;;;;;;;;;;4.87;54.53;98614.56;4961653;28;6812;-73
2023/01/18 09:56:02;;;;;;;;;;;;;;;4.97;54.47;98618.38;4966366;28;6820;-73
2023/01/18 09:59:04;;;;;;;;;;;;;;;5.02;54.26;98624.50;4947808;28;7054;-73
2023/01/18 10:01:34;;;;;;;;;;;;;;;5.09;53.81;98625.66;4962119;28;6871;-73
2023/01/18 10:04:07;;;;;;;;;;;;;;;5.17;53.95;98631.03;4978036;28;7183;-73
2023/01/18 10:06:59;;;;;;;;;;;;;;;5.23;53.75;98628.75;4961275;28;7027;-73
2023/01/18 10:09:43;;;;;;;;;;;;;;;5.27;53.84;98625.53;4963939;28;7255;-74
2023/01/18 10:12:35;;;;;;;;;;;;;;;5.32;53.83;98634.22;4987356;28;7058;-74
2023/01/18 10:15:30;;;;;;;;;;;;;;;5.37;53.97;98635.25;4965919;28;6997;-73
2023/01/18 10:17:59;;;;;;;;;;;;;;;5.52;54.26;98641.75;4989605;28;6974;-74
2023/01/18 10:21:01;;;;;;;;;;;;;;;5.77;54.12;98650.34;4992437;28;6995;-73
2023/01/18 10:24:08;;;;;;;;;;;;;;;6.19;53.23;98640.13;4959538;28;6796;-73
2023/01/18 10:26:37;;;;;;;;;;;;;;;6.72;52.72;98644.53;4962185;28;7153;-73
2023/01/18 10:29:24;;;;;;;;;;;;;;;7.30;51.38;98638.84;4964541;28;6897;-74
2023/01/18 10:32:07;;;;;;;;;;;;;;;7.85;50.84;98639.72;4969433;28;7695;-73
2023/01/18 10:34:38;;;;;;;;;;;;;;;8.38;50.05;98636.13;4991500;28;6828;-73
2023/01/18 10:37:36;;;;;;;;;;;;;;;8.91;49.97;98640.16;4997469;28;7016;-74
2023/01/18 10:40:06;;;;;;;;;;;;;;;9.47;49.30;98644.13;4977083;28;7007;-74
2023/01/18 10:42:44;;;;;;;;;;;;;;;10.03;48.09;98637.69;4965624;28;7004;-74
2023/01/18 10:45:31;;;;;;;;;;;;;;;10.73;46.80;98633.16;4980876;28;7055;-74
2023/01/18 10:48:30;;;;;;;;;;;;;;;11.36;45.39;98629.16;4983145;28;7043;-74
2023/01/18 10:51:06;;;;;;;;;;;;;;;11.97;44.69;98647.16;4961922;28;7002;-74
2023/01/18 10:53:35;;;;;;;;;;;;;;;12.30;44.22;98636.50;4958117;28;8210;-74
2023/01/18 10:56:04;;;;;;;;;;;;;;;12.53;43.47;98635.91;4977824;28;6792;-74
2023/01/18 10:58:51;;;;;;;;;;;;;;;12.71;42.73;98644.69;4977108;28;6789;-74
2023/01/18 11:01:22;;;;;;;;;;;;;;;12.83;41.80;98629.38;4993813;28;6829;-74
2023/01/18 11:03:54;;;;;;;;;;;;;;;12.87;42.63;98636.31;4982063;28;6986;-74
2023/01/18 11:06:21;;;;;;;;;;;;;;;13.06;42.17;98637.31;4978670;28;6804;-74
2023/01/18 11:08:49;;;;;;;;;;;;;;;13.40;41.76;98635.94;4965387;28;6823;-74
2023/01/18 11:14:29;;;;;;;;;;;;;;;14.14;39.20;98636.44;4974770;28;7559;-73
2023/01/18 11:17:02;;;;;;;;;;;;;;;14.35;39.71;98636.53;4969309;28;7422;-73
2023/01/18 11:19:28;;;;;;;;;;;;;;;14.57;39.64;98642.63;4965419;28;6796;-74
2023/01/18 11:21:54;;;;;;;;;;;;;;;14.79;38.59;98641.03;4979878;28;7064;-74
2023/01/18 11:24:29;;;;;;;;;;;;;;;15.06;38.40;98639.34;4991079;28;7978;-74
2023/01/18 11:27:02;;;;;;;;;;;;;;;15.28;37.65;98641.97;4966550;28;6785;-74
2023/01/18 11:29:33;;;;;;;;;;;;;;;15.41;37.45;98638.50;4968160;28;7015;-74
2023/01/18 11:32:08;;;;;;;;;;;;;;;15.39;37.40;98632.50;4962441;28;7937;-74
2023/01/18 11:34:45;;;;;;;;;;;;;;;15.38;37.27;98637.66;4963090;28;6992;-74
2023/01/18 11:37:35;;;;;;;;;;;;;;;15.59;36.90;98639.38;4976710;28;7144;-74
2023/01/18 11:40:25;;;;;;;;;;;;;;;15.69;36.24;98635.91;4979578;28;6816;-74
2023/01/18 11:43:02;;;;;;;;;;;;;;;15.72;36.12;98636.78;4976819;28;7237;-74
2023/01/18 11:45:53;;;;;;;;;;;;;;;15.76;36.73;98641.94;4979398;28;7315;-74
2023/01/18 11:48:47;;;;;;;;;;;;;;;15.98;36.05;98641.91;4973545;28;6819;-74
2023/01/18 11:51:30;;;;;;;;;;;;;;;16.19;35.70;98642.75;4969679;28;6966;-74
2023/01/18 11:54:13;;;;;;;;;;;;;;;16.22;35.24;98646.19;4964667;28;7543;-74
2023/01/18 11:56:49;;;;;;;;;;;;;;;16.27;35.35;98643.56;4977501;28;6828;-74
2023/01/18 11:59:33;;;;;;;;;;;;;;;16.40;35.50;98649.56;4965412;28;7003;-74
2023/01/18 12:02:57;;;;;;;;;;;;;;;16.59;34.79;98647.75;4974185;28;6848;-74
2023/01/18 12:06:02;;;;;;;;;;;;;;;16.52;34.70;98641.75;4979139;28;6927;-74
2023/01/18 12:09:02;;;;;;;;;;;;;;;16.43;34.60;98648.69;4963568;28;6808;-74
2023/01/18 12:11:52;;;;;;;;;;;;;;;16.58;34.32;98640.00;4967478;28;6816;-74
2023/01/18 12:14:30;;;;;;;;;;;;;;;16.76;34.34;98649.41;4961793;28;6780;-74
2023/01/18 12:17:12;;;;;;;;;;;;;;;16.90;34.35;98636.38;4987897;28;7438;-74
2023/01/18 12:19:57;;;;;;;;;;;;;;;16.81;33.85;98634.72;4980575;28;6888;-74
2023/01/18 12:22:52;;;;;;;;;;;;;;;15.82;34.21;98643.66;4965733;28;6804;-74
2023/01/18 12:25:52;;;;;;;;;;;;;;;14.36;35.39;98653.72;4978041;28;7239;-74
2023/01/18 12:28:41;;;;;;;;;;;;;;;12.98;37.39;98661.25;4982803;28;6812;-74
2023/01/18 12:31:30;;;;;;;;;;;;;;;11.94;38.33;98664.25;4978473;28;7007;-73
2023/01/18 12:34:22;;;;;;;;;;;;;;;11.11;38.89;98661.22;4978278;28;6992;-74
2023/01/18 12:36:56;;;;;;;;;;;;;;;10.51;40.14;98668.59;4963203;28;7353;-74
2023/01/18 12:39:22;;;;;;;;;;;;;;;10.02;40.60;98669.25;4974611;28;7222;-74
2023/01/18 12:41:58;;;;;;;;;;;;;;;9.65;41.61;98673.50;4974802;28;7142;-74
2023/01/18 12:44:34;;;;;;;;;;;;;;;9.33;42.11;98673.59;4967517;28;7118;-74
2023/01/18 12:47:20;;;;;;;;;;;;;;;9.06;41.47;98678.03;4972974;28;6811;-74
2023/01/18 12:49:56;;;;;;;;;;;;;;;8.83;43.24;98685.06;4963433;28;6970;-74
2023/01/18 12:52:24;;;;;;;;;;;;;;;8.70;42.99;98689.84;4993805;28;7285;-74
2023/01/18 12:54:56;;;;;;;;;;;;;;;8.56;42.60;98684.34;4964869;28;6804;-73
2023/01/18 12:57:24;;;;;;;;;;;;;;;8.44;43.74;98696.72;4962789;28;6808;-74
2023/01/18 13:00:14;;;;;;;;;;;;;;;8.36;43.53;98698.19;4971051;28;7611;-73
2023/01/18 13:02:44;;;;;;;;;;;;;;;8.27;43.84;98693.66;4972055;28;11414;-73
2023/01/18 13:05:34;;;;;;;;;;;;;;;8.18;43.68;98690.03;4981179;28;7365;-74
2023/01/18 13:08:15;;;;;;;;;;;;;;;8.13;44.93;98695.81;4972584;28;6999;-74
2023/01/18 13:10:43;;;;;;;;;;;;;;;8.08;44.59;98700.78;4991944;28;6792;-74
2023/01/18 13:13:18;;;;;;;;;;;;;;;8.04;44.92;98701.50;4971333;28;6820;-74
2023/01/18 13:16:16;;;;;;;;;;;;;;;8.01;44.79;98698.84;4954464;28;7611;-73
2023/01/18 13:18:54;;;;;;;;;;;;;;;7.99;44.80;98703.91;4965510;28;7264;-73
2023/01/18 13:22:10;;;;;;;;;;;;;;;8.03;45.11;98702.34;4963525;28;6796;-74
2023/01/18 13:24:51;;;;;;;;;;;;;;;8.02;46.04;98708.25;4967896;28;7102;-74
2023/01/18 13:27:18;;;;;;;;;;;;;;;8.04;45.21;98706.63;4974180;28;6917;-73
2023/01/18 13:29:45;;;;;;;;;;;;;;;8.04;45.68;98701.50;4977187;28;7856;-73
2023/01/18 13:32:34;;;;;;;;;;;;;;;8.01;46.44;98699.72;4967590;28;6807;-74
2023/01/18 13:35:17;;;;;;;;;;;;;;;7.99;45.82;98708.13;4963084;28;6999;-73
2023/01/18 13:37:53;;;;;;;;;;;;;;;7.98;46.54;98703.84;4963619;28;6876;-74
2023/01/18 13:40:30;;;;;;;;;;;;;;;7.92;45.14;98710.53;4975245;28;6816;-74
2023/01/18 13:42:56;;;;;;;;;;;;;;;7.88;45.70;98721.44;4968006;28;8079;-73
2023/01/18 13:45:25;;;;;;;;;;;;;;;7.87;46.69;98723.91;4988682;28;7002;-74
2023/01/18 13:48:04;;;;;;;;;;;;;;;7.85;45.86;98723.91;4990014;28;7428;-73
2023/01/18 13:50:36;;;;;;;;;;;;;;;7.82;46.52;98720.38;4945572;28;7068;-73
2023/01/18 13:53:17;;;;;;;;;;;;;;;7.80;45.81;98727.97;4973483;28;6800;-74
2023/01/18 13:56:07;;;;;;;;;;;;;;;7.78;45.60;98732.16;4975827;28;7930;-73
2023/01/18 13:58:37;;;;;;;;;;;;;;;7.75;46.51;98726.97;4978261;28;6831;-73
2023/01/18 14:01:06;;;;;;;;;;;;;;;7.74;46.30;98732.88;4965208;28;6804;-73
2023/01/18 14:03:42;;;;;;;;;;;;;;;7.71;45.29;98733.66;4964387;28;7290;-73
2023/01/18 14:06:34;;;;;;;;;;;;;;;7.71;45.48;98735.31;4971246;28;7090;-73
2023/01/18 14:09:14;;;;;;;;;;;;;;;7.71;45.04;98740.41;4973297;28;7345;-73